Time;durP1;ratioP1;P1;durP2;ratioP2;P2;SDS_P1;SDS_P2;PMS_P1;PMS_P2;Temp;Humidity;BMP_temperature;BMP_pressure;BME280_temperature;BME280_humidity;BME280_pressure;Samples;Min_cycle;Max_cycle;Signal;HPM_P1;HPM_P2
2023/01/27 00:00:22;;;;;;;9.23;4.38;;;4.20;99.90;;;;;;4999113;28;20046;-64
2023/01/27 00:02:48;;;;;;;8.90;4.70;;;4.20;99.90;;;;;;5008613;28;20510;-63
2023/01/27 00:05:15;;;;;;;7.20;4.35;;;4.20;99.90;;;;;;5006779;28;20062;-63
2023/01/27 00:07:44;;;;;;;5.65;3.38;;;4.20;99.90;;;;;;5008663;28;20053;-63
2023/01/27 00:10:13;;;;;;;8.80;3.47;;;4.10;99.90;;;;;;5013920;28;20099;-63
2023/01/27 00:15:24;;;;;;;8.88;3.83;;;4.10;99.90;;;;;;5008520;28;20104;-63
2023/01/27 00:17:50;;;;;;;7.13;3.83;;;4.10;99.90;;;;;;5007183;28;20041;-63
2023/01/27 00:25:49;;;;;;;4.53;2.78;;;4.10;99.90;;;;;;5019052;28;20053;-63
2023/01/27 00:28:21;;;;;;;4.72;3.00;;;4.10;99.90;;;;;;5002895;28;20045;-63
2023/01/27 00:30:50;;;;;;;7.25;3.45;;;4.10;99.90;;;;;;5007105;28;20050;-63
2023/01/27 00:33:25;;;;;;;5.78;2.90;;;4.10;99.90;;;;;;5007365;28;20515;-63
2023/01/27 00:36:03;;;;;;;8.38;2.80;;;4.10;99.90;;;;;;5001248;28;20033;-63
2023/01/27 00:38:31;;;;;;;6.03;3.63;;;4.10;99.90;;;;;;5006012;28;20068;-64
2023/01/27 00:44:00;;;;;;;5.63;2.65;;;4.20;99.90;;;;;;4961027;28;20062;-63
2023/01/27 00:46:25;;;;;;;4.53;1.98;;;4.20;99.90;;;;;;4994578;28;20041;-64
2023/01/27 00:48:51;;;;;;;7.88;2.63;;;4.20;99.90;;;;;;5007699;28;20399;-64
2023/01/27 00:51:19;;;;;;;5.07;2.92;;;4.20;99.90;;;;;;5006954;28;20103;-63
2023/01/27 00:53:45;;;;;;;4.63;2.50;;;4.20;99.90;;;;;;5007935;28;20188;-63
2023/01/27 00:56:12;;;;;;;9.52;2.85;;;4.20;99.90;;;;;;5006768;28;20122;-63
2023/01/27 00:58:38;;;;;;;6.13;2.72;;;4.30;99.90;;;;;;5002477;28;20078;-63
2023/01/27 01:01:06;;;;;;;4.88;2.20;;;4.30;99.90;;;;;;5003864;28;20435;-63
2023/01/27 01:03:34;;;;;;;5.07;2.40;;;4.40;99.90;;;;;;5007557;28;20050;-63
2023/01/27 01:06:05;;;;;;;3.92;2.10;;;4.40;99.90;;;;;;5007126;28;20085;-63
2023/01/27 01:08:33;;;;;;;3.65;2.00;;;4.40;99.90;;;;;;4996791;28;20558;-63
2023/01/27 01:10:59;;;;;;;4.47;2.20;;;4.40;99.90;;;;;;5008007;28;20060;-63
2023/01/27 01:13:27;;;;;;;10.25;2.60;;;4.40;99.90;;;;;;5021151;28;20049;-63
2023/01/27 01:15:54;;;;;;;7.85;2.22;;;4.40;99.90;;;;;;5008099;28;20049;-64
2023/01/27 01:18:20;;;;;;;8.65;2.03;;;4.40;99.90;;;;;;5005719;28;20042;-63
2023/01/27 01:20:46;;;;;;;5.88;2.05;;;4.40;99.90;;;;;;4984615;28;20054;-63
2023/01/27 01:23:13;;;;;;;6.70;1.95;;;4.40;99.90;;;;;;5006720;28;20049;-63
2023/01/27 01:25:39;;;;;;;6.88;1.65;;;4.50;99.90;;;;;;5007138;28;20547;-63
2023/01/27 01:28:07;;;;;;;4.15;1.80;;;4.40;99.90;;;;;;5007623;28;20058;-63
2023/01/27 01:30:36;;;;;;;2.45;1.38;;;4.50;99.90;;;;;;5006145;28;20053;-63
2023/01/27 01:33:03;;;;;;;1.53;0.80;;;4.50;99.90;;;;;;5006532;28;20079;-63
2023/01/27 01:35:29;;;;;;;4.20;1.25;;;4.50;99.90;;;;;;5004883;28;20825;-63
2023/01/27 01:37:55;;;;;;;2.13;1.02;;;4.50;99.90;;;;;;5007865;28;20045;-63
2023/01/27 01:40:21;;;;;;;2.80;1.20;;;4.50;99.90;;;;;;5006490;28;20518;-63
2023/01/27 01:42:59;;;;;;;4.20;1.00;;;4.50;99.90;;;;;;5005746;28;20139;-63
2023/01/27 01:45:54;;;;;;;4.72;1.38;;;4.50;99.90;;;;;;5005935;28;20357;-63
2023/01/27 01:48:26;;;;;;;3.95;1.00;;;4.50;99.90;;;;;;5006237;28;20787;-63
2023/01/27 01:51:25;;;;;;;3.35;1.20;;;4.60;99.90;;;;;;5007728;28;20049;-63
2023/01/27 01:53:59;;;;;;;3.00;0.85;;;4.60;99.90;;;;;;5006015;28;20496;-63
2023/01/27 01:56:59;;;;;;;3.60;0.98;;;4.60;99.90;;;;;;5005716;28;20083;-63
2023/01/27 01:59:30;;;;;;;3.90;1.10;;;4.50;99.90;;;;;;5005242;28;20073;-63
2023/01/27 02:02:00;;;;;;;3.20;0.88;;;4.50;99.90;;;;;;5009164;28;20100;-64
2023/01/27 02:04:33;;;;;;;1.98;0.93;;;4.50;99.90;;;;;;5010010;28;20097;-63
2023/01/27 02:07:44;;;;;;;4.40;1.35;;;4.50;99.90;;;;;;5011122;28;20069;-63
2023/01/27 02:10:11;;;;;;;1.08;0.85;;;4.50;99.90;;;;;;5009420;28;20050;-63
2023/01/27 02:12:37;;;;;;;9.07;1.05;;;4.50;99.90;;;;;;5009341;28;20042;-64
2023/01/27 02:15:04;;;;;;;1.05;0.75;;;4.50;99.90;;;;;;5009631;28;20124;-63
2023/01/27 02:17:30;;;;;;;3.00;1.65;;;4.50;99.90;;;;;;5010296;28;20502;-64
2023/01/27 02:20:27;;;;;;;3.30;1.10;;;4.50;99.90;;;;;;5010704;28;20116;-63
2023/01/27 02:23:17;;;;;;;2.72;0.90;;;4.50;99.90;;;;;;5009289;28;20515;-63
2023/01/27 02:25:49;;;;;;;1.40;0.90;;;4.40;99.90;;;;;;5024670;28;20056;-63
2023/01/27 02:28:17;;;;;;;3.15;0.98;;;4.50;99.90;;;;;;4996355;28;20107;-63
2023/01/27 02:30:42;;;;;;;4.63;0.90;;;4.40;99.90;;;;;;5009426;28;20034;-63
2023/01/27 02:33:13;;;;;;;1.33;0.88;;;4.40;99.90;;;;;;5006182;28;20169;-64
2023/01/27 02:35:42;;;;;;;2.95;1.25;;;4.40;99.90;;;;;;5002745;28;20050;-64
2023/01/27 02:38:10;;;;;;;1.88;1.05;;;4.40;99.90;;;;;;5010540;28;20038;-63
2023/01/27 02:40:36;;;;;;;4.00;1.45;;;4.40;99.90;;;;;;5008754;28;20046;-63
2023/01/27 02:43:04;;;;;;;10.63;1.10;;;4.40;99.90;;;;;;5007683;28;20101;-63
2023/01/27 02:45:30;;;;;;;5.80;1.35;;;4.30;99.90;;;;;;5009501;28;20045;-63
2023/01/27 02:47:56;;;;;;;2.45;1.00;;;4.40;99.90;;;;;;5009049;28;20113;-64
2023/01/27 02:50:22;;;;;;;5.50;1.10;;;4.40;99.90;;;;;;5005578;28;20074;-63
2023/01/27 02:52:48;;;;;;;5.72;1.10;;;4.40;99.90;;;;;;5001301;28;20038;-63
2023/01/27 02:55:14;;;;;;;2.03;1.30;;;4.40;99.90;;;;;;5008513;28;20587;-63
2023/01/27 02:57:39;;;;;;;4.32;1.48;;;4.40;99.90;;;;;;5008276;28;20136;-64
2023/01/27 03:00:08;;;;;;;4.22;1.30;;;4.40;99.90;;;;;;5010253;28;20050;-64
2023/01/27 03:02:34;;;;;;;8.65;1.05;;;4.40;99.90;;;;;;5023758;28;20062;-64
2023/01/27 03:05:00;;;;;;;4.80;1.33;;;4.40;99.90;;;;;;5009171;28;20054;-64
2023/01/27 03:07:26;;;;;;;2.35;1.05;;;4.30;99.90;;;;;;5025416;28;20125;-63
2023/01/27 03:09:52;;;;;;;2.55;1.33;;;4.30;99.90;;;;;;5008276;28;20599;-64
2023/01/27 03:12:20;;;;;;;4.88;1.02;;;4.30;99.90;;;;;;5009604;28;20046;-64
2023/01/27 03:20:21;;;;;;;5.35;1.83;;;4.30;99.90;;;;;;5009623;28;20057;-63
2023/01/27 03:22:47;;;;;;;6.05;1.42;;;4.30;99.90;;;;;;5008032;28;20104;-64
2023/01/27 03:25:13;;;;;;;9.73;1.42;;;4.30;99.90;;;;;;5009902;28;20129;-64
2023/01/27 03:27:39;;;;;;;3.10;1.25;;;4.20;99.90;;;;;;5007183;28;20084;-64
2023/01/27 03:30:06;;;;;;;2.38;0.80;;;4.30;99.90;;;;;;5009704;28;20049;-63
2023/01/27 03:32:32;;;;;;;3.15;0.73;;;4.30;99.90;;;;;;5007072;28;20056;-64
2023/01/27 03:35:00;;;;;;;4.60;1.00;;;4.30;99.90;;;;;;5008410;28;20041;-63
2023/01/27 03:48:31;;;;;;;6.45;1.15;;;4.20;99.90;;;;;;5007732;28;20120;-64
2023/01/27 03:50:58;;;;;;;2.70;0.90;;;4.20;99.90;;;;;;5009050;28;20046;-63
2023/01/27 03:53:23;;;;;;;1.40;0.77;;;4.10;99.90;;;;;;5006329;28;20116;-64
2023/01/27 03:55:49;;;;;;;4.60;1.33;;;4.10;99.90;;;;;;5008508;28;20120;-63
2023/01/27 03:58:20;;;;;;;4.60;0.90;;;4.10;99.90;;;;;;5007507;28;20054;-63
2023/01/27 04:00:49;;;;;;;1.52;1.08;;;4.10;99.90;;;;;;5008613;28;20061;-64
2023/01/27 04:08:56;;;;;;;3.47;1.08;;;4.00;99.90;;;;;;5008338;28;20037;-64
2023/01/27 04:14:08;;;;;;;3.05;1.05;;;4.00;99.90;;;;;;5000503;28;20034;-63
2023/01/27 04:16:37;;;;;;;4.72;1.00;;;4.10;99.90;;;;;;5008782;28;20431;-63
2023/01/27 04:19:05;;;;;;;4.27;1.13;;;4.10;99.90;;;;;;5006874;28;20173;-63
2023/01/27 04:21:31;;;;;;;13.10;1.30;;;4.10;99.90;;;;;;5000857;28;20050;-64
2023/01/27 04:23:57;;;;;;;3.63;1.23;;;4.10;99.90;;;;;;4999699;28;20064;-63
2023/01/27 04:26:24;;;;;;;4.15;1.42;;;4.10;99.90;;;;;;5008077;28;20480;-63
2023/01/27 04:28:50;;;;;;;6.82;1.20;;;4.00;99.90;;;;;;5007161;28;20449;-63
2023/01/27 04:31:16;;;;;;;8.02;1.02;;;4.00;99.90;;;;;;5008040;28;20038;-64
2023/01/27 04:33:43;;;;;;;4.60;1.25;;;4.00;99.90;;;;;;5007970;28;20042;-63
2023/01/27 04:36:12;;;;;;;5.30;1.13;;;4.10;99.90;;;;;;5005700;28;20084;-63
2023/01/27 04:38:39;;;;;;;3.93;1.33;;;4.10;99.90;;;;;;5008703;28;20120;-63
2023/01/27 04:41:05;;;;;;;4.68;1.13;;;4.10;99.90;;;;;;5006675;28;20128;-64
2023/01/27 04:43:30;;;;;;;5.15;1.00;;;4.10;99.90;;;;;;5008658;28;20559;-63
2023/01/27 04:45:56;;;;;;;3.13;1.15;;;4.00;99.90;;;;;;5005010;28;20091;-63
2023/01/27 04:48:22;;;;;;;5.32;1.20;;;4.00;99.90;;;;;;5008079;28;20048;-64
2023/01/27 04:50:48;;;;;;;2.72;1.42;;;4.00;99.90;;;;;;5007592;28;20091;-63
2023/01/27 04:53:13;;;;;;;6.75;1.23;;;3.90;99.90;;;;;;5007276;28;21005;-63
2023/01/27 04:55:43;;;;;;;1.65;1.30;;;3.90;99.90;;;;;;5001818;28;20042;-63
2023/01/27 04:58:12;;;;;;;6.13;1.40;;;3.90;99.90;;;;;;5000960;28;20112;-63
2023/01/27 05:00:37;;;;;;;5.55;1.20;;;3.90;99.90;;;;;;5008210;28;20046;-63
2023/01/27 05:03:04;;;;;;;3.95;1.30;;;3.90;99.90;;;;;;5005629;28;20057;-64
2023/01/27 05:05:31;;;;;;;5.15;1.48;;;3.80;99.90;;;;;;5007404;28;20054;-63
2023/01/27 05:08:05;;;;;;;6.85;1.23;;;3.80;99.90;;;;;;5006919;28;20112;-64
2023/01/27 05:10:31;;;;;;;5.63;1.33;;;3.80;99.90;;;;;;5006932;28;20062;-64
2023/01/27 05:12:57;;;;;;;4.32;1.30;;;3.80;99.90;;;;;;5007778;28;20419;-64
2023/01/27 05:15:24;;;;;;;2.65;1.95;;;3.80;99.90;;;;;;5005185;28;20053;-64
2023/01/27 05:17:49;;;;;;;4.43;1.75;;;3.90;99.90;;;;;;5007175;28;20042;-64
2023/01/27 05:20:16;;;;;;;6.72;1.33;;;3.80;99.90;;;;;;5006108;28;20045;-63
2023/01/27 05:22:42;;;;;;;3.45;1.10;;;3.80;99.90;;;;;;5007902;28;20041;-63
2023/01/27 05:25:08;;;;;;;5.97;1.60;;;3.80;99.90;;;;;;5006853;28;20487;-63
2023/01/27 05:27:34;;;;;;;4.20;1.40;;;3.80;99.90;;;;;;5006931;28;20044;-63
2023/01/27 05:30:00;;;;;;;5.75;1.15;;;3.80;99.90;;;;;;5007256;28;20050;-64
2023/01/27 05:32:26;;;;;;;2.15;0.88;;;3.80;99.90;;;;;;5006597;28;20042;-64
2023/01/27 05:34:52;;;;;;;3.22;1.00;;;3.80;99.90;;;;;;5007866;28;20046;-63
2023/01/27 05:37:18;;;;;;;7.07;0.95;;;3.70;99.90;;;;;;5005150;28;20054;-64
2023/01/27 05:39:43;;;;;;;5.25;1.05;;;3.70;99.90;;;;;;5011638;28;20125;-63
2023/01/27 05:42:09;;;;;;;5.80;1.20;;;3.60;99.90;;;;;;5005221;28;20429;-63
2023/01/27 05:44:35;;;;;;;1.63;0.77;;;3.70;99.90;;;;;;5003829;28;20420;-64
2023/01/27 05:47:01;;;;;;;1.92;0.88;;;3.70;99.90;;;;;;5004868;28;20083;-63
2023/01/27 05:49:27;;;;;;;3.10;0.80;;;3.70;99.90;;;;;;4995530;28;20018;-63
2023/01/27 05:51:52;;;;;;;5.10;1.17;;;3.70;99.90;;;;;;4995986;28;20074;-63
2023/01/27 05:54:18;;;;;;;6.35;1.00;;;3.70;99.90;;;;;;5000604;28;20728;-64
2023/01/27 05:56:44;;;;;;;5.10;1.10;;;3.80;99.90;;;;;;5011076;28;20567;-64
2023/01/27 05:59:10;;;;;;;10.50;2.95;;;3.80;99.90;;;;;;5009223;28;20037;-64
2023/01/27 06:01:36;;;;;;;6.03;1.23;;;3.80;99.90;;;;;;4995520;28;20099;-64
2023/01/27 06:04:03;;;;;;;4.57;0.85;;;3.70;99.90;;;;;;5009752;28;20050;-64
2023/01/27 06:06:30;;;;;;;7.22;1.88;;;3.70;99.90;;;;;;5010696;28;20057;-64
2023/01/27 06:08:57;;;;;;;13.23;1.10;;;3.70;99.90;;;;;;5006760;28;20041;-64
2023/01/27 06:11:24;;;;;;;2.38;0.50;;;3.70;99.90;;;;;;5009315;28;20042;-64
2023/01/27 06:13:51;;;;;;;8.30;1.42;;;3.70;99.90;;;;;;5026133;28;20105;-63
2023/01/27 06:16:19;;;;;;;3.90;1.10;;;3.70;99.90;;;;;;5009012;28;20488;-64
2023/01/27 06:18:46;;;;;;;2.83;0.77;;;3.70;99.90;;;;;;5010725;28;20096;-63
2023/01/27 06:21:13;;;;;;;6.05;1.63;;;3.70;99.90;;;;;;5009321;28;20093;-63
2023/01/27 06:23:39;;;;;;;7.75;1.20;;;3.70;99.90;;;;;;5010570;28;20046;-64
2023/01/27 06:26:11;;;;;;;10.43;1.33;;;3.70;99.90;;;;;;5010129;28;20132;-63
2023/01/27 06:28:38;;;;;;;7.03;0.70;;;3.70;99.90;;;;;;5008250;28;20046;-64
2023/01/27 06:31:27;;;;;;;1.90;0.70;;;3.80;99.90;;;;;;5009474;28;20052;-64
2023/01/27 06:33:53;;;;;;;5.90;0.90;;;3.70;99.90;;;;;;5009308;28;20045;-63
2023/01/27 06:36:20;;;;;;;6.47;1.20;;;3.70;99.90;;;;;;5010262;28;20041;-63
2023/01/27 06:38:47;;;;;;;10.95;1.25;;;3.70;99.90;;;;;;5009989;28;20395;-63
2023/01/27 06:41:13;;;;;;;4.82;0.80;;;3.70;99.90;;;;;;4991051;28;20061;-63
2023/01/27 06:43:39;;;;;;;2.83;0.90;;;3.70;99.90;;;;;;5010374;28;20061;-63
2023/01/27 06:46:05;;;;;;;5.45;1.20;;;3.70;99.90;;;;;;5008580;28;20092;-63
2023/01/27 06:48:31;;;;;;;10.15;1.35;;;3.70;99.90;;;;;;5009719;28;20373;-64
2023/01/27 06:50:57;;;;;;;5.13;1.13;;;3.70;99.90;;;;;;5008880;28;20129;-63
2023/01/27 06:53:23;;;;;;;4.55;1.42;;;3.70;99.90;;;;;;5009614;28;20136;-64
2023/01/27 06:55:57;;;;;;;4.68;1.60;;;3.60;99.90;;;;;;4999928;28;20039;-64
2023/01/27 06:58:24;;;;;;;8.57;1.45;;;3.60;99.90;;;;;;5005407;28;20053;-64
2023/01/27 07:00:50;;;;;;;6.85;1.05;;;3.60;99.90;;;;;;5010300;28;20045;-63
2023/01/27 07:03:16;;;;;;;7.00;1.40;;;3.60;99.90;;;;;;5008135;28;20042;-64
2023/01/27 07:05:42;;;;;;;2.70;0.80;;;3.60;99.90;;;;;;5009676;28;20404;-64
2023/01/27 07:08:08;;;;;;;6.85;0.98;;;3.60;99.90;;;;;;5008449;28;20514;-63
2023/01/27 07:10:34;;;;;;;7.90;2.15;;;3.60;99.90;;;;;;5009952;28;20124;-63
2023/01/27 07:13:08;;;;;;;8.00;1.30;;;3.50;99.90;;;;;;5008954;28;20042;-63
2023/01/27 07:15:34;;;;;;;9.02;1.50;;;3.60;99.90;;;;;;5004443;28;20045;-63
2023/01/27 07:18:00;;;;;;;3.60;1.00;;;3.60;99.90;;;;;;5004781;28;20061;-64
2023/01/27 07:20:27;;;;;;;5.68;1.00;;;3.60;99.90;;;;;;5006299;28;20103;-63
2023/01/27 07:22:57;;;;;;;3.15;1.10;;;3.60;99.90;;;;;;5009516;28;20046;-64
2023/01/27 07:25:22;;;;;;;11.10;1.23;;;3.60;99.90;;;;;;5007655;28;20458;-63
2023/01/27 07:27:48;;;;;;;1.60;1.15;;;3.60;99.90;;;;;;5009314;28;20038;-63
2023/01/27 07:30:14;;;;;;;6.32;1.45;;;3.60;99.90;;;;;;5007512;28;20038;-63
2023/01/27 07:32:40;;;;;;;7.00;1.10;;;3.60;99.90;;;;;;5009302;28;20077;-64
2023/01/27 07:35:07;;;;;;;9.38;1.33;;;3.60;99.90;;;;;;5009054;28;20112;-64
2023/01/27 07:37:33;;;;;;;12.68;1.95;;;3.60;99.90;;;;;;5007698;28;20243;-64
2023/01/27 07:39:58;;;;;;;8.60;1.50;;;3.60;99.90;;;;;;5024348;28;20411;-63
2023/01/27 07:42:24;;;;;;;5.75;1.20;;;3.60;99.90;;;;;;4998114;28;20046;-63
2023/01/27 07:44:50;;;;;;;16.38;1.92;;;3.60;99.90;;;;;;5008110;28;20060;-64
2023/01/27 07:47:16;;;;;;;8.48;2.03;;;3.60;99.90;;;;;;5007642;28;20486;-64
2023/01/27 07:49:42;;;;;;;9.25;1.77;;;3.60;99.90;;;;;;5008817;28;20512;-64
2023/01/27 07:52:07;;;;;;;4.05;1.58;;;3.60;99.90;;;;;;5008035;28;20552;-63
2023/01/27 07:54:33;;;;;;;7.70;1.33;;;3.70;99.90;;;;;;5008067;28;20107;-64
2023/01/27 07:57:00;;;;;;;4.43;1.00;;;3.60;99.90;;;;;;5008940;28;20045;-63
2023/01/27 07:59:27;;;;;;;6.97;1.30;;;3.60;99.90;;;;;;5007050;28;20056;-63
2023/01/27 08:01:53;;;;;;;10.43;1.50;;;3.60;99.90;;;;;;5006734;28;20045;-63
2023/01/27 08:04:18;;;;;;;8.02;1.27;;;3.60;99.90;;;;;;5009737;28;20061;-64
2023/01/27 08:06:45;;;;;;;5.35;1.33;;;3.60;99.90;;;;;;5008831;28;20046;-63
2023/01/27 08:09:10;;;;;;;4.30;1.70;;;3.60;99.90;;;;;;5007582;28;20133;-63
2023/01/27 08:11:36;;;;;;;3.95;1.20;;;3.70;99.90;;;;;;5008277;28;20192;-64
2023/01/27 08:14:02;;;;;;;8.10;2.33;;;3.60;99.90;;;;;;5008014;28;20380;-63
2023/01/27 08:16:28;;;;;;;6.93;1.60;;;3.60;99.90;;;;;;5006993;28;20132;-64
2023/01/27 08:18:55;;;;;;;3.38;1.30;;;3.50;99.90;;;;;;5008744;28;20038;-63
2023/01/27 08:21:21;;;;;;;14.25;2.08;;;3.50;99.90;;;;;;5006976;28;20050;-64
2023/01/27 08:23:47;;;;;;;6.25;1.77;;;3.50;99.90;;;;;;5008613;28;20547;-63
2023/01/27 08:26:14;;;;;;;7.63;1.20;;;3.50;99.90;;;;;;5007061;28;20042;-64
2023/01/27 08:28:39;;;;;;;9.88;1.50;;;3.60;99.90;;;;;;5008311;28;20042;-63
2023/01/27 08:31:12;;;;;;;5.55;1.40;;;3.60;99.90;;;;;;5006147;28;20484;-63
2023/01/27 08:33:39;;;;;;;7.68;1.48;;;3.60;99.90;;;;;;5006102;28;20046;-65
2023/01/27 08:36:11;;;;;;;6.50;1.60;;;3.70;99.90;;;;;;5006452;28;20140;-64
2023/01/27 08:38:37;;;;;;;5.45;1.30;;;3.70;99.90;;;;;;4989365;28;20536;-63
2023/01/27 08:41:05;;;;;;;7.40;1.50;;;3.70;99.90;;;;;;5004043;28;20058;-64
2023/01/27 08:43:31;;;;;;;4.53;1.58;;;3.70;99.90;;;;;;5006969;28;20140;-64
2023/01/27 08:45:59;;;;;;;5.38;1.52;;;3.70;99.90;;;;;;4996169;28;20030;-63
2023/01/27 08:48:28;;;;;;;6.40;1.55;;;3.70;99.90;;;;;;4990463;28;20704;-63
2023/01/27 08:50:55;;;;;;;4.45;1.42;;;3.70;99.90;;;;;;5005417;28;20038;-63
2023/01/27 08:53:22;;;;;;;6.07;1.50;;;3.70;99.90;;;;;;4992749;28;20412;-63
2023/01/27 08:55:47;;;;;;;3.72;1.40;;;3.80;99.90;;;;;;4990048;28;20412;-63
2023/01/27 08:58:13;;;;;;;8.52;1.33;;;3.80;99.90;;;;;;5006673;28;20046;-64
2023/01/27 09:00:39;;;;;;;10.32;1.58;;;3.80;99.90;;;;;;5006149;28;20049;-64
2023/01/27 09:03:05;;;;;;;7.55;1.77;;;3.80;99.90;;;;;;5007789;28;20045;-64
2023/01/27 09:05:31;;;;;;;9.00;1.50;;;3.70;99.90;;;;;;5006265;28;20046;-63
2023/01/27 09:07:56;;;;;;;5.32;1.65;;;3.90;99.90;;;;;;5005743;28;20188;-64
2023/01/27 09:10:22;;;;;;;9.20;1.40;;;3.80;99.90;;;;;;4993767;28;20529;-64
2023/01/27 09:12:48;;;;;;;6.28;1.73;;;3.90;99.90;;;;;;4988236;28;20050;-64
2023/01/27 09:15:14;;;;;;;5.75;1.52;;;3.90;99.90;;;;;;5007665;28;20065;-64
2023/01/27 09:17:41;;;;;;;1.90;1.17;;;3.90;99.90;;;;;;5021265;28;20435;-63
2023/01/27 09:20:08;;;;;;;5.28;1.23;;;3.90;99.90;;;;;;5007976;28;20041;-64
2023/01/27 09:22:35;;;;;;;4.93;1.58;;;3.90;99.90;;;;;;4984574;28;20089;-63
2023/01/27 09:25:02;;;;;;;5.18;1.23;;;3.90;99.90;;;;;;4999665;28;20159;-64
2023/01/27 09:27:29;;;;;;;2.72;1.25;;;3.90;99.90;;;;;;5001236;28;20117;-64
2023/01/27 09:29:54;;;;;;;5.03;1.70;;;3.90;99.90;;;;;;5003170;28;20107;-65
2023/01/27 09:32:20;;;;;;;5.47;1.27;;;3.90;99.90;;;;;;5006091;28;20046;-64
2023/01/27 09:34:46;;;;;;;10.65;1.50;;;3.90;99.90;;;;;;5005091;28;20038;-64
2023/01/27 09:37:12;;;;;;;5.28;1.20;;;4.00;99.90;;;;;;5007539;28;20049;-64
2023/01/27 09:39:50;;;;;;;1.60;0.90;;;4.00;99.90;;;;;;5004564;28;20515;-64
2023/01/27 09:42:39;;;;;;;3.00;1.40;;;3.90;99.90;;;;;;5006736;28;20049;-64
2023/01/27 09:45:34;;;;;;;4.70;1.57;;;3.90;99.90;;;;;;4997336;28;20053;-64
2023/01/27 09:48:05;;;;;;;2.88;1.17;;;3.90;99.90;;;;;;5004464;28;20252;-64
2023/01/27 09:50:32;;;;;;;4.18;1.20;;;3.80;99.90;;;;;;5006528;28;20467;-64
2023/01/27 09:53:25;;;;;;;2.50;1.35;;;3.90;99.90;;;;;;5021401;28;20435;-64
2023/01/27 09:56:03;;;;;;;1.40;1.30;;;3.90;99.90;;;;;;4998911;28;20551;-64
2023/01/27 09:58:35;;;;;;;2.50;1.30;;;3.90;99.90;;;;;;5006572;28;20408;-64
2023/01/27 10:01:34;;;;;;;3.67;1.20;;;3.90;99.90;;;;;;5005329;28;20776;-64
2023/01/27 10:04:18;;;;;;;2.88;1.10;;;3.80;99.90;;;;;;4977916;28;20475;-64
2023/01/27 10:07:06;;;;;;;1.52;1.42;;;3.80;99.90;;;;;;4973579;28;20489;-64
2023/01/27 10:09:53;;;;;;;5.50;1.55;;;3.80;99.90;;;;;;4989455;28;20053;-63
2023/01/27 10:12:39;;;;;;;2.03;1.40;;;3.80;99.90;;;;;;4992801;28;20078;-64
2023/01/27 10:15:32;;;;;;;1.70;1.33;;;3.80;99.90;;;;;;4993878;28;20366;-63
2023/01/27 10:18:16;;;;;;;2.22;1.30;;;3.80;99.90;;;;;;4997573;28;20608;-64
2023/01/27 10:21:11;;;;;;;3.83;1.20;;;3.80;99.90;;;;;;5017954;28;20109;-64
2023/01/27 10:23:52;;;;;;;1.70;1.10;;;3.80;99.90;;;;;;5000782;28;20085;-64
2023/01/27 10:26:41;;;;;;;2.63;1.38;;;3.90;99.90;;;;;;5006716;28;20069;-64
2023/01/27 10:29:13;;;;;;;1.88;1.40;;;3.90;99.90;;;;;;5006393;28;20072;-64
2023/01/27 10:31:56;;;;;;;3.90;1.50;;;3.90;99.90;;;;;;5005630;28;20152;-64
2023/01/27 10:34:56;;;;;;;3.95;1.35;;;3.90;99.90;;;;;;5007560;28;20049;-64
2023/01/27 10:37:51;;;;;;;1.35;1.25;;;4.00;99.90;;;;;;4985405;28;20061;-64
2023/01/27 10:40:29;;;;;;;4.80;1.10;;;4.00;99.90;;;;;;4990059;28;20460;-64
2023/01/27 10:43:15;;;;;;;2.42;1.20;;;4.10;99.90;;;;;;4994727;28;20108;-64
2023/01/27 10:46:29;;;;;;;1.05;0.70;;;4.20;99.90;;;;;;4967744;28;20069;-64
2023/01/27 10:49:03;;;;;;;0.77;0.70;;;4.20;99.90;;;;;;4946184;29;20047;-64
2023/01/27 10:51:37;;;;;;;0.90;0.90;;;4.20;99.90;;;;;;4947601;29;20043;-64
2023/01/27 10:54:18;;;;;;;2.63;0.98;;;4.20;99.90;;;;;;4980665;28;20054;-63
2023/01/27 10:56:50;;;;;;;1.40;1.30;;;4.20;99.90;;;;;;4989582;28;20050;-64
2023/01/27 10:59:27;;;;;;;1.50;1.40;;;4.10;99.90;;;;;;4996687;28;20092;-64
2023/01/27 11:02:06;;;;;;;2.10;1.40;;;4.10;99.90;;;;;;5000669;28;20046;-64
2023/01/27 11:04:42;;;;;;;3.15;1.60;;;4.10;99.90;;;;;;5007967;28;20073;-64
2023/01/27 11:07:20;;;;;;;4.18;1.38;;;4.00;99.90;;;;;;4993059;28;20064;-63
2023/01/27 11:10:02;;;;;;;1.35;1.25;;;4.10;99.90;;;;;;4997940;28;20062;-64
2023/01/27 11:12:35;;;;;;;1.15;1.13;;;4.10;99.90;;;;;;4994676;28;20077;-64
2023/01/27 11:15:29;;;;;;;1.50;1.40;;;4.10;99.90;;;;;;4993001;28;20054;-63
2023/01/27 11:18:05;;;;;;;3.40;1.27;;;4.10;99.90;;;;;;4983972;28;20054;-64
2023/01/27 11:20:44;;;;;;;1.90;1.42;;;4.20;99.90;;;;;;5004131;28;20515;-64
2023/01/27 11:23:18;;;;;;;1.52;1.20;;;4.30;99.90;;;;;;5000996;28;20056;-64
2023/01/27 11:26:10;;;;;;;1.30;1.20;;;4.30;99.90;;;;;;5003456;28;20033;-64
2023/01/27 11:29:20;;;;;;;2.25;1.40;;;4.40;99.90;;;;;;4999738;28;20053;-64
2023/01/27 11:32:04;;;;;;;3.03;1.40;;;4.50;99.90;;;;;;5003581;28;20125;-64
2023/01/27 11:34:49;;;;;;;2.95;1.38;;;4.50;99.90;;;;;;5002093;28;20087;-64
2023/01/27 11:37:17;;;;;;;1.17;1.17;;;4.50;99.90;;;;;;4997866;28;20050;-64
2023/01/27 11:39:43;;;;;;;1.42;1.27;;;4.50;99.90;;;;;;4990898;28;20042;-64
2023/01/27 11:42:10;;;;;;;3.80;1.90;;;4.40;99.90;;;;;;5003856;28;20512;-64
2023/01/27 11:44:37;;;;;;;1.20;1.20;;;4.40;99.90;;;;;;4993367;28;20046;-64
2023/01/27 11:47:06;;;;;;;2.50;1.00;;;4.40;99.90;;;;;;4994363;28;20037;-64
2023/01/27 11:49:41;;;;;;;3.22;1.40;;;4.40;99.90;;;;;;5002228;28;20042;-64
2023/01/27 11:52:12;;;;;;;1.30;1.17;;;4.40;99.90;;;;;;5002007;28;20539;-64
2023/01/27 11:55:04;;;;;;;3.72;1.42;;;4.20;99.90;;;;;;4998678;28;20046;-63
2023/01/27 11:57:32;;;;;;;3.13;1.05;;;4.20;99.90;;;;;;4991362;28;20054;-63
2023/01/27 12:00:03;;;;;;;1.77;0.93;;;4.20;99.90;;;;;;5007593;28;20042;-64
2023/01/27 12:02:43;;;;;;;0.80;0.80;;;4.30;99.90;;;;;;5004380;28;20045;-64
2023/01/27 12:05:17;;;;;;;1.35;0.70;;;4.20;99.90;;;;;;5006343;28;20425;-64
2023/01/27 12:07:54;;;;;;;1.85;0.88;;;4.20;99.90;;;;;;5008054;28;20074;-64
2023/01/27 12:10:29;;;;;;;2.42;0.98;;;4.20;99.90;;;;;;5008464;28;20061;-64
2023/01/27 12:12:59;;;;;;;1.05;0.60;;;4.20;99.90;;;;;;4993984;28;20042;-64
2023/01/27 12:15:28;;;;;;;0.80;0.70;;;4.20;99.90;;;;;;5007477;28;20411;-64
2023/01/27 12:17:59;;;;;;;0.50;0.50;;;4.30;99.90;;;;;;5006161;28;20480;-64
2023/01/27 12:20:37;;;;;;;0.82;0.60;;;4.30;99.90;;;;;;5008726;28;20125;-64
2023/01/27 12:23:48;;;;;;;0.38;0.35;;;4.30;99.90;;;;;;5005331;28;20503;-64
2023/01/27 12:26:14;;;;;;;0.52;0.52;;;4.20;99.90;;;;;;4966077;28;20049;-63
2023/01/27 12:28:48;;;;;;;0.60;0.60;;;4.20;99.90;;;;;;4993429;28;20097;-63
2023/01/27 12:31:36;;;;;;;0.93;0.50;;;4.20;99.90;;;;;;5006254;28;20056;-64
2023/01/27 12:34:06;;;;;;;2.35;0.80;;;4.30;99.90;;;;;;5008136;28;20050;-64
2023/01/27 12:36:39;;;;;;;1.45;0.50;;;4.30;99.90;;;;;;5007008;28;20181;-64
2023/01/27 12:39:06;;;;;;;1.25;0.45;;;4.30;99.90;;;;;;5008010;28;20821;-64
2023/01/27 12:41:34;;;;;;;1.30;0.60;;;4.30;99.90;;;;;;5007445;28;20103;-64
2023/01/27 12:44:17;;;;;;;1.60;0.80;;;4.30;99.90;;;;;;5006976;28;20053;-63
2023/01/27 12:47:02;;;;;;;2.20;1.10;;;4.30;99.90;;;;;;4990318;28;20054;-64
2023/01/27 12:49:36;;;;;;;0.90;0.60;;;4.30;99.90;;;;;;5007229;28;20042;-64
2023/01/27 12:52:07;;;;;;;0.73;0.50;;;4.30;99.90;;;;;;4989659;28;20581;-64
2023/01/27 12:54:33;;;;;;;;;;;4.30;99.90;;;;;;5008197;28;20133;-63
2023/01/27 12:57:17;;;;;;;0.60;0.55;;;4.30;99.90;;;;;;5007083;28;20011;-63
2023/01/27 13:00:01;;;;;;;1.00;0.60;;;4.20;99.90;;;;;;5008323;28;20054;-64
2023/01/27 13:02:31;;;;;;;0.60;0.60;;;4.20;99.90;;;;;;5006404;28;20092;-64
2023/01/27 13:05:01;;;;;;;;;;;4.20;99.90;;;;;;5023120;28;20143;-64
2023/01/27 13:07:30;;;;;;;0.55;0.50;;;4.20;99.90;;;;;;5007635;28;20449;-63
2023/01/27 13:10:05;;;;;;;1.27;0.52;;;4.30;99.90;;;;;;5007068;28;20515;-63
2023/01/27 13:12:46;;;;;;;0.60;0.60;;;4.20;99.90;;;;;;5007609;28;20147;-64
2023/01/27 13:15:18;;;;;;;1.88;0.82;;;4.20;99.90;;;;;;5006556;28;20054;-64
2023/01/27 13:17:45;;;;;;;0.40;0.40;;;4.10;99.90;;;;;;5007852;28;20050;-64
2023/01/27 13:20:30;;;;;;;0.52;0.52;;;4.20;99.90;;;;;;5006651;28;20042;-64
2023/01/27 13:23:18;;;;;;;1.27;0.63;;;4.10;99.90;;;;;;5005018;28;20488;-64
2023/01/27 13:25:44;;;;;;;0.40;0.40;;;4.10;99.90;;;;;;5007803;28;20061;-64
2023/01/27 13:28:17;;;;;;;0.88;0.70;;;4.10;99.90;;;;;;5006028;28;20042;-64
2023/01/27 13:30:47;;;;;;;0.50;0.50;;;4.20;99.90;;;;;;5007749;28;20581;-64
2023/01/27 13:33:50;;;;;;;0.57;0.57;;;4.10;99.90;;;;;;5005311;28;20046;-63
2023/01/27 13:36:41;;;;;;;0.30;0.30;;;4.10;99.90;;;;;;5002201;28;20468;-64
2023/01/27 13:39:17;;;;;;;0.35;0.35;;;4.10;99.90;;;;;;5007345;28;20042;-64
2023/01/27 13:42:03;;;;;;;0.38;0.38;;;4.20;99.90;;;;;;5006827;28;20049;-64
2023/01/27 13:44:38;;;;;;;0.32;0.32;;;4.20;99.90;;;;;;4985067;28;20057;-64
2023/01/27 13:47:13;;;;;;;0.50;0.50;;;4.10;99.90;;;;;;5001161;28;20053;-64
2023/01/27 13:49:46;;;;;;;0.63;0.45;;;4.20;99.90;;;;;;5006314;28;20046;-63
2023/01/27 13:52:13;;;;;;;0.32;0.32;;;4.20;99.90;;;;;;5007361;28;20053;-64
2023/01/27 13:54:39;;;;;;;0.40;0.40;;;4.30;99.90;;;;;;5004762;28;20053;-63